Time;durP1;ratioP1;P1;durP2;ratioP2;P2;SDS_P1;SDS_P2;PMS_P1;PMS_P2;Temp;Humidity;BMP_temperature;BMP_pressure;BME280_temperature;BME280_humidity;BME280_pressure;Samples;Min_cycle;Max_cycle;Signal;HPM_P1;HPM_P2
2024/04/05 00:01:52;;;;;;;17.02;12.68;;;13.00;99.90;;;;;;4846199;29;20036;-78
2024/04/05 00:04:18;;;;;;;17.45;11.70;;;12.90;99.90;;;;;;4863264;29;20036;-78
2024/04/05 00:06:44;;;;;;;13.82;11.85;;;12.90;99.90;;;;;;4863273;29;20136;-78
2024/04/05 00:09:11;;;;;;;14.43;11.50;;;12.90;99.90;;;;;;4861959;29;20487;-78
2024/04/05 00:11:38;;;;;;;17.63;12.23;;;12.90;99.90;;;;;;4863099;29;20036;-78
2024/04/05 00:14:05;;;;;;;15.40;12.30;;;13.00;99.90;;;;;;4863220;29;20108;-78
2024/04/05 00:16:31;;;;;;;14.18;12.75;;;13.00;99.90;;;;;;4863099;29;20033;-78
2024/04/05 00:18:58;;;;;;;15.05;12.95;;;13.00;99.90;;;;;;4843707;29;20057;-78
2024/04/05 00:21:24;;;;;;;16.73;13.48;;;13.00;99.90;;;;;;4827908;29;20140;-78
2024/04/05 00:23:51;;;;;;;14.68;13.27;;;13.10;99.90;;;;;;4844464;29;20053;-78
2024/04/05 00:26:17;;;;;;;17.05;13.55;;;13.00;99.90;;;;;;4812947;29;20046;-78
2024/04/05 00:28:44;;;;;;;14.88;13.23;;;12.80;99.90;;;;;;4860500;29;20038;-78
2024/04/05 00:31:17;;;;;;;14.40;13.15;;;12.70;99.90;;;;;;4862559;29;20025;-78
2024/04/05 00:33:43;;;;;;;16.15;13.00;;;12.50;99.90;;;;;;4861677;29;20030;-78
2024/04/05 00:36:11;;;;;;;16.05;12.93;;;12.40;99.90;;;;;;4862805;29;20094;-78
2024/04/05 00:38:37;;;;;;;14.23;12.93;;;12.40;99.90;;;;;;4861461;29;20026;-78
2024/04/05 00:41:05;;;;;;;15.57;13.57;;;12.40;99.90;;;;;;4861359;29;20496;-78
2024/04/05 00:43:42;;;;;;;15.88;13.60;;;12.40;99.90;;;;;;4846220;29;20550;-78
2024/04/05 00:46:09;;;;;;;20.17;13.50;;;12.50;99.90;;;;;;4861493;29;20037;-78
2024/04/05 00:48:36;;;;;;;15.50;13.27;;;12.60;99.90;;;;;;4862563;29;20105;-78
2024/04/05 00:51:07;;;;;;;14.07;12.68;;;12.50;99.90;;;;;;4862543;29;20104;-78
2024/04/05 00:53:33;;;;;;;16.23;13.70;;;12.40;99.90;;;;;;4845979;29;20455;-78
2024/04/05 00:56:02;;;;;;;14.20;12.80;;;12.40;99.90;;;;;;4862484;29;20060;-78
2024/04/05 00:58:29;;;;;;;14.10;12.70;;;12.40;99.90;;;;;;4861093;29;20129;-78
2024/04/05 01:00:56;;;;;;;14.30;12.90;;;12.30;99.90;;;;;;4862377;29;20040;-78
2024/04/05 01:03:23;;;;;;;14.45;12.90;;;12.30;99.90;;;;;;4862326;29;20034;-78
2024/04/05 01:05:50;;;;;;;14.88;13.13;;;12.20;99.90;;;;;;4845571;29;20124;-78
2024/04/05 01:08:17;;;;;;;13.57;12.63;;;12.10;99.90;;;;;;4860655;29;20034;-78
2024/04/05 01:10:44;;;;;;;16.05;12.60;;;12.10;99.90;;;;;;4845566;29;20033;-78
2024/04/05 01:13:12;;;;;;;14.95;13.45;;;12.00;99.90;;;;;;4844721;29;20440;-78
2024/04/05 01:15:40;;;;;;;13.98;12.68;;;11.90;99.90;;;;;;4862109;29;20040;-78
2024/04/05 01:18:10;;;;;;;14.55;13.13;;;11.80;99.90;;;;;;4851386;29;20074;-78
2024/04/05 01:20:38;;;;;;;15.15;13.60;;;11.70;99.90;;;;;;4811704;29;20060;-78
2024/04/05 01:23:07;;;;;;;16.15;13.30;;;11.60;99.90;;;;;;4843642;29;20034;-78
2024/04/05 01:25:35;;;;;;;15.18;13.68;;;11.50;99.90;;;;;;4843555;29;20121;-78
2024/04/05 01:28:16;;;;;;;17.08;13.50;;;11.30;99.90;;;;;;4836719;29;20026;-78
2024/04/05 01:30:43;;;;;;;18.27;14.00;;;11.30;99.90;;;;;;4845333;29;20516;-77
2024/04/05 01:33:09;;;;;;;17.05;15.25;;;11.20;99.90;;;;;;4861739;29;20029;-77
2024/04/05 01:35:39;;;;;;;20.92;16.30;;;11.30;99.90;;;;;;4845211;29;20034;-77
2024/04/05 01:38:08;;;;;;;17.13;14.68;;;11.30;99.90;;;;;;4851364;29;20034;-78
2024/04/05 01:40:35;;;;;;;26.60;16.95;;;11.30;99.90;;;;;;4843022;29;20094;-77
2024/04/05 01:43:02;;;;;;;21.77;16.00;;;11.30;99.90;;;;;;4843237;29;20026;-78
2024/04/05 01:45:28;;;;;;;21.33;15.77;;;11.30;99.90;;;;;;4852258;29;20033;-77
2024/04/05 01:47:55;;;;;;;25.65;14.98;;;11.30;99.90;;;;;;4861667;29;20030;-78
2024/04/05 01:50:21;;;;;;;23.33;15.80;;;11.30;99.90;;;;;;4863378;29;20060;-77
2024/04/05 01:52:48;;;;;;;17.60;14.95;;;11.30;99.90;;;;;;4879952;29;20035;-77
2024/04/05 01:55:14;;;;;;;16.63;14.40;;;11.30;99.90;;;;;;4879706;29;20037;-77
2024/04/05 01:57:41;;;;;;;23.23;14.27;;;11.20;99.90;;;;;;4870036;29;20028;-77
2024/04/05 02:00:08;;;;;;;17.88;14.60;;;11.10;99.90;;;;;;4844695;29;20030;-77
2024/04/05 02:02:44;;;;;;;17.52;14.77;;;11.00;99.90;;;;;;4861276;29;20040;-77
2024/04/05 02:05:10;;;;;;;19.85;15.43;;;11.10;99.90;;;;;;4844527;29;20050;-77
2024/04/05 02:07:37;;;;;;;17.92;14.98;;;11.10;99.90;;;;;;4861228;29;20029;-77
2024/04/05 02:10:04;;;;;;;18.60;15.05;;;11.20;99.90;;;;;;4861220;29;20029;-78
2024/04/05 02:12:31;;;;;;;21.42;15.00;;;11.30;99.90;;;;;;4844563;29;20476;-77
2024/04/05 02:15:01;;;;;;;20.30;14.10;;;11.30;99.90;;;;;;4864719;29;20013;-77
2024/04/05 02:17:28;;;;;;;16.95;14.60;;;11.40;99.90;;;;;;4874468;29;20041;-77
2024/04/05 02:19:55;;;;;;;18.33;14.88;;;11.40;99.90;;;;;;4844357;29;20029;-78
2024/04/05 02:22:21;;;;;;;19.02;14.55;;;11.40;99.90;;;;;;4844385;29;20045;-78
2024/04/05 02:24:47;;;;;;;16.95;14.23;;;11.40;99.90;;;;;;4844183;29;20033;-78
2024/04/05 02:27:16;;;;;;;19.77;14.98;;;11.30;99.90;;;;;;4844188;29;20029;-78
2024/04/05 02:29:42;;;;;;;18.45;15.98;;;11.30;99.90;;;;;;4844430;29;20042;-78
2024/04/05 02:32:09;;;;;;;21.10;14.75;;;11.20;99.90;;;;;;4858211;29;20173;-78
2024/04/05 02:34:36;;;;;;;23.70;14.95;;;11.20;99.90;;;;;;4844321;29;20029;-78
2024/04/05 02:37:05;;;;;;;17.17;15.25;;;11.20;99.90;;;;;;4860816;29;20048;-78
2024/04/05 02:39:32;;;;;;;22.13;14.98;;;11.20;99.90;;;;;;4860838;29;20033;-78
2024/04/05 02:41:58;;;;;;;19.00;15.07;;;11.10;99.90;;;;;;4859425;29;20113;-78
2024/04/05 02:44:25;;;;;;;22.73;15.13;;;11.10;99.90;;;;;;4844216;29;20109;-78
2024/04/05 02:46:53;;;;;;;19.85;15.18;;;11.10;99.90;;;;;;4860851;29;20048;-78
2024/04/05 02:49:19;;;;;;;17.98;14.85;;;11.10;99.90;;;;;;4829008;29;20030;-78
2024/04/05 02:51:46;;;;;;;21.38;14.90;;;11.00;99.90;;;;;;4860530;29;20036;-79
2024/04/05 02:54:16;;;;;;;21.60;14.90;;;11.00;99.90;;;;;;4844079;29;20034;-78
2024/04/05 02:56:43;;;;;;;15.90;14.20;;;11.00;99.90;;;;;;4844253;29;20033;-77
2024/04/05 02:59:09;;;;;;;17.63;15.00;;;11.00;99.90;;;;;;4860517;29;20105;-77
2024/04/05 03:01:36;;;;;;;25.15;14.93;;;11.00;99.90;;;;;;4860833;29;20064;-77
2024/04/05 03:04:02;;;;;;;19.63;14.70;;;10.90;99.90;;;;;;4861007;29;20460;-77
2024/04/05 03:06:29;;;;;;;19.85;15.40;;;11.00;99.90;;;;;;4857600;29;20048;-77
2024/04/05 03:08:58;;;;;;;19.35;15.43;;;11.00;99.90;;;;;;4845354;29;20062;-77
2024/04/05 03:11:25;;;;;;;16.15;14.70;;;10.90;99.90;;;;;;4842053;29;20034;-77
2024/04/05 03:13:52;;;;;;;16.45;14.38;;;10.90;99.90;;;;;;4840403;29;20026;-77
2024/04/05 03:16:18;;;;;;;18.30;14.65;;;10.90;99.90;;;;;;4860568;29;20057;-77
2024/04/05 03:18:44;;;;;;;21.30;14.43;;;10.90;99.90;;;;;;4843917;29;20053;-77
2024/04/05 03:21:11;;;;;;;19.23;13.80;;;10.90;99.90;;;;;;4860223;29;20049;-77
2024/04/05 03:23:38;;;;;;;19.05;14.30;;;10.90;99.90;;;;;;4860444;29;20037;-77
2024/04/05 03:26:04;;;;;;;16.55;14.35;;;10.90;99.90;;;;;;4843725;29;20045;-77
2024/04/05 03:28:30;;;;;;;19.13;13.68;;;10.90;99.90;;;;;;4860488;29;20511;-77
2024/04/05 03:30:57;;;;;;;19.15;14.73;;;10.80;99.90;;;;;;4860403;29;20041;-76
2024/04/05 03:33:23;;;;;;;17.35;14.48;;;10.80;99.90;;;;;;4860264;29;20037;-77
2024/04/05 03:35:52;;;;;;;18.55;14.60;;;10.80;99.90;;;;;;4861721;29;20108;-76
2024/04/05 03:38:18;;;;;;;18.23;14.48;;;10.80;99.90;;;;;;4862562;29;20026;-77
2024/04/05 03:40:45;;;;;;;16.63;14.70;;;10.70;99.90;;;;;;4863937;29;20036;-76
2024/04/05 03:43:11;;;;;;;19.30;14.60;;;10.70;99.90;;;;;;4863768;29;20029;-77
2024/04/05 03:45:44;;;;;;;24.95;15.15;;;10.80;99.90;;;;;;4863765;29;20052;-77
2024/04/05 03:48:10;;;;;;;19.23;15.18;;;10.70;99.90;;;;;;4847003;29;20033;-78
2024/04/05 03:50:39;;;;;;;18.63;15.80;;;10.70;99.90;;;;;;4847050;29;20093;-78
2024/04/05 03:53:06;;;;;;;18.33;14.60;;;10.70;99.90;;;;;;4871591;29;20490;-79
2024/04/05 03:55:32;;;;;;;18.48;14.60;;;10.70;99.90;;;;;;4865539;29;20033;-78
2024/04/05 03:57:59;;;;;;;19.40;14.77;;;10.70;99.90;;;;;;4873356;29;20761;-77
2024/04/05 04:00:25;;;;;;;22.55;14.63;;;10.70;99.90;;;;;;4863581;29;20026;-78
2024/04/05 04:02:52;;;;;;;22.30;15.10;;;10.60;99.90;;;;;;4869127;29;20021;-79
2024/04/05 04:05:19;;;;;;;18.20;15.05;;;10.50;99.90;;;;;;4873006;29;20029;-79
2024/04/05 04:07:46;;;;;;;18.90;15.38;;;10.50;99.90;;;;;;4863460;29;20376;-78
2024/04/05 04:10:13;;;;;;;18.40;14.40;;;10.40;99.90;;;;;;4863432;29;20456;-78
2024/04/05 04:12:40;;;;;;;19.77;15.88;;;10.50;99.90;;;;;;4867184;29;20033;-78
2024/04/05 04:15:11;;;;;;;17.30;15.38;;;10.50;99.90;;;;;;4881873;29;20022;-78
2024/04/05 04:17:38;;;;;;;19.42;15.00;;;10.40;99.90;;;;;;4877540;29;20068;-78
2024/04/05 04:20:06;;;;;;;25.02;15.35;;;10.50;99.90;;;;;;4861900;29;20049;-79
2024/04/05 04:22:33;;;;;;;22.15;15.18;;;10.50;99.90;;;;;;4863270;29;20057;-79
2024/04/05 04:25:00;;;;;;;22.85;15.68;;;10.40;99.90;;;;;;4863053;29;20504;-78
2024/04/05 04:27:27;;;;;;;19.05;14.85;;;10.30;99.90;;;;;;4846402;29;20532;-79
2024/04/05 04:29:58;;;;;;;23.05;15.85;;;10.30;99.90;;;;;;4863133;29;20029;-78
2024/04/05 04:32:25;;;;;;;21.63;15.65;;;10.30;99.90;;;;;;4863226;29;20049;-78
2024/04/05 04:34:52;;;;;;;19.83;15.75;;;10.40;99.90;;;;;;4881567;29;20076;-78
2024/04/05 04:37:20;;;;;;;22.65;15.18;;;10.40;99.90;;;;;;4878334;29;20043;-78
2024/04/05 04:39:47;;;;;;;19.33;15.55;;;10.50;99.90;;;;;;4851341;29;20113;-78
2024/04/05 04:42:14;;;;;;;24.40;15.93;;;10.60;99.90;;;;;;4844155;29;20022;-78
2024/04/05 04:44:40;;;;;;;20.70;16.17;;;10.60;99.90;;;;;;4862604;29;20098;-78
2024/04/05 04:47:06;;;;;;;22.35;15.63;;;10.60;99.90;;;;;;4862502;29;20280;-78
2024/04/05 04:49:33;;;;;;;22.75;15.95;;;10.70;99.90;;;;;;4845997;29;20029;-78
2024/04/05 04:51:59;;;;;;;23.92;15.55;;;10.80;99.90;;;;;;4862541;29;20544;-78
2024/04/05 04:54:27;;;;;;;24.70;16.00;;;10.70;99.90;;;;;;4862481;29;20165;-78
2024/04/05 04:56:55;;;;;;;19.80;15.38;;;10.80;99.90;;;;;;4845773;29;20447;-78
2024/04/05 04:59:28;;;;;;;20.92;15.75;;;10.80;99.90;;;;;;4849659;29;20392;-78
2024/04/05 05:01:58;;;;;;;19.80;15.30;;;10.90;99.90;;;;;;4842895;29;20034;-78
2024/04/05 05:04:24;;;;;;;21.75;16.52;;;11.00;99.90;;;;;;4843008;29;20124;-78
2024/04/05 05:06:52;;;;;;;20.13;15.20;;;11.10;99.90;;;;;;4862290;29;20080;-78
2024/04/05 05:09:18;;;;;;;16.67;13.40;;;11.60;99.90;;;;;;4862009;29;20030;-78
2024/04/05 05:11:46;;;;;;;25.38;14.68;;;12.20;99.90;;;;;;4861002;29;20510;-78
2024/04/05 05:14:15;;;;;;;21.23;16.20;;;13.40;99.90;;;;;;4859425;29;20498;-78
2024/04/05 05:16:42;;;;;;;17.63;15.43;;;14.00;99.90;;;;;;4880658;29;20048;-79
2024/04/05 05:19:09;;;;;;;21.80;15.68;;;14.40;99.90;;;;;;4865447;29;20025;-78
2024/04/05 05:21:38;;;;;;;20.45;17.70;;;15.20;99.90;;;;;;4861863;29;20052;-79
2024/04/05 05:24:05;;;;;;;28.23;23.80;;;16.00;99.90;;;;;;4861941;29;20412;-79
2024/04/05 05:26:32;;;;;;;29.30;26.88;;;16.80;99.90;;;;;;4856983;29;20056;-79
2024/04/05 05:28:58;;;;;;;31.55;28.83;;;17.30;99.90;;;;;;4849884;29;20121;-80
2024/04/05 05:31:25;;;;;;;34.08;31.00;;;17.90;99.90;;;;;;4845193;29;20109;-79
2024/04/05 05:33:53;;;;;;;37.47;31.17;;;18.70;99.90;;;;;;4861344;29;20105;-79
2024/04/05 05:36:19;;;;;;;34.90;31.73;;;19.40;99.90;;;;;;4854105;29;20169;-79
2024/04/05 05:38:45;;;;;;;34.97;31.70;;;19.60;99.90;;;;;;4867932;29;20037;-78
2024/04/05 05:41:13;;;;;;;35.45;32.38;;;20.20;99.90;;;;;;4861409;29;20501;-78
2024/04/05 05:43:41;;;;;;;34.10;30.73;;;20.20;99.90;;;;;;4859770;29;20017;-78
2024/04/05 05:46:15;;;;;;;34.22;31.17;;;20.80;99.90;;;;;;4849902;29;20042;-79
2024/04/05 05:48:47;;;;;;;34.33;31.42;;;21.80;99.90;;;;;;4858602;29;20032;-79
2024/04/05 05:51:16;;;;;;;33.50;30.70;;;22.50;99.90;;;;;;4844676;29;20493;-79
2024/04/05 05:53:43;;;;;;;34.83;31.35;;;22.20;99.90;;;;;;4861340;29;20395;-80
2024/04/05 05:56:10;;;;;;;34.08;31.15;;;22.40;99.90;;;;;;4860530;29;20048;-79
2024/04/05 05:58:39;;;;;;;34.03;30.90;;;22.20;99.90;;;;;;4844187;29;20104;-79
2024/04/05 06:01:06;;;;;;;33.28;30.42;;;22.10;99.90;;;;;;4861244;29;20029;-80
2024/04/05 06:03:34;;;;;;;34.83;31.50;;;22.20;99.90;;;;;;4861338;29;20025;-79
2024/04/05 06:06:02;;;;;;;34.22;31.02;;;21.90;99.90;;;;;;4860125;29;20539;-78
2024/04/05 06:08:29;;;;;;;36.17;32.70;;;21.70;99.90;;;;;;4844445;29;20030;-80
2024/04/05 06:10:57;;;;;;;34.40;31.77;;;22.00;99.90;;;;;;4843795;29;20044;-80
2024/04/05 06:13:24;;;;;;;34.80;31.88;;;22.60;99.90;;;;;;4843405;29;20081;-78
2024/04/05 06:15:57;;;;;;;35.20;32.05;;;22.70;99.90;;;;;;4857461;29;20069;-78
2024/04/05 06:18:28;;;;;;;35.13;32.22;;;22.80;99.90;;;;;;4858757;29;20387;-77
2024/04/05 06:20:56;;;;;;;34.88;31.85;;;22.10;99.90;;;;;;4860494;29;20228;-78
2024/04/05 06:23:24;;;;;;;34.92;31.75;;;22.30;99.90;;;;;;4857871;29;20033;-78
2024/04/05 06:25:53;;;;;;;34.78;31.40;;;22.30;99.90;;;;;;4860322;29;20439;-81
2024/04/05 06:28:20;;;;;;;34.22;30.90;;;22.80;99.90;;;;;;4859273;29;20430;-78
2024/04/05 06:30:47;;;;;;;33.72;31.08;;;23.10;99.90;;;;;;4860425;29;20037;-77
2024/04/05 06:33:14;;;;;;;34.95;31.48;;;22.80;99.90;;;;;;4858788;29;20082;-77
2024/04/05 06:35:41;;;;;;;34.17;31.58;;;23.20;99.90;;;;;;4860741;29;20034;-79
2024/04/05 06:38:09;;;;;;;34.03;31.00;;;23.30;99.90;;;;;;4833682;29;20081;-77
2024/04/05 06:40:37;;;;;;;33.35;30.65;;;23.10;99.90;;;;;;4860868;29;20104;-77
2024/04/05 06:43:06;;;;;;;33.15;30.05;;;22.80;99.90;;;;;;4860657;29;20113;-77
2024/04/05 06:45:32;;;;;;;33.05;30.48;;;22.30;99.90;;;;;;4860224;29;20056;-77
2024/04/05 06:48:02;;;;;;;32.72;30.33;;;22.60;99.90;;;;;;4824783;29;20081;-77
2024/04/05 06:50:32;;;;;;;32.42;30.13;;;22.80;99.90;;;;;;4850558;29;20069;-78
2024/04/05 06:52:58;;;;;;;33.25;30.60;;;22.10;99.90;;;;;;4856190;29;20034;-77
2024/04/05 06:55:26;;;;;;;31.92;29.52;;;22.10;99.90;;;;;;4843289;29;20038;-78
2024/04/05 06:57:56;;;;;;;32.28;29.83;;;22.50;99.90;;;;;;4859937;29;20085;-78
2024/04/05 07:00:26;;;;;;;33.28;30.95;;;22.60;99.90;;;;;;4850437;29;20065;-78
2024/04/05 07:02:52;;;;;;;33.17;31.00;;;22.20;99.90;;;;;;4852220;29;20056;-77
2024/04/05 07:05:19;;;;;;;34.33;31.70;;;22.60;99.90;;;;;;4844142;29;20441;-78
2024/04/05 07:07:46;;;;;;;33.55;31.20;;;22.90;99.90;;;;;;4860864;29;20025;-77
2024/04/05 07:10:15;;;;;;;32.90;30.67;;;23.00;99.90;;;;;;4859902;29;20025;-78
2024/04/05 07:12:48;;;;;;;34.05;31.55;;;23.00;99.90;;;;;;4864085;29;20077;-78
2024/04/05 07:15:15;;;;;;;34.20;31.90;;;22.80;99.90;;;;;;4863929;29;20029;-76
2024/04/05 07:17:41;;;;;;;34.35;31.95;;;23.40;99.90;;;;;;4864279;29;20034;-76
2024/04/05 07:20:11;;;;;;;34.55;32.03;;;23.70;99.90;;;;;;4862227;29;20040;-77
2024/04/05 07:22:38;;;;;;;34.88;32.05;;;23.50;99.90;;;;;;4860859;29;20029;-77
2024/04/05 07:25:07;;;;;;;34.90;32.47;;;23.70;99.90;;;;;;4863203;29;20517;-77
2024/04/05 07:27:35;;;;;;;34.20;31.48;;;23.20;99.90;;;;;;4863472;29;20065;-77
2024/04/05 07:30:02;;;;;;;34.42;31.98;;;23.00;99.90;;;;;;4862776;29;20033;-77
2024/04/05 07:32:28;;;;;;;34.75;32.25;;;23.50;99.90;;;;;;4863605;29;20025;-76
2024/04/05 07:34:55;;;;;;;34.83;32.42;;;23.60;99.90;;;;;;4863130;29;20112;-76
2024/04/05 07:37:21;;;;;;;34.95;32.60;;;23.30;99.90;;;;;;4863334;29;20078;-76
2024/04/05 07:39:50;;;;;;;35.60;32.78;;;22.90;99.90;;;;;;4863468;29;20034;-76
2024/04/05 07:42:20;;;;;;;35.80;33.28;;;22.50;99.90;;;;;;4863836;29;20033;-77
2024/04/05 07:44:47;;;;;;;36.47;33.83;;;22.20;99.90;;;;;;4852164;29;20033;-78
2024/04/05 07:47:14;;;;;;;35.30;32.47;;;22.50;99.90;;;;;;4861793;29;20491;-78
2024/04/05 07:49:40;;;;;;;36.47;33.65;;;23.10;99.90;;;;;;4863256;29;20086;-78
2024/04/05 07:52:06;;;;;;;37.20;34.47;;;23.30;99.90;;;;;;4861462;29;20104;-77
2024/04/05 07:54:34;;;;;;;36.25;33.45;;;23.80;99.90;;;;;;4860902;29;20034;-77
2024/04/05 07:57:02;;;;;;;36.25;33.63;;;23.70;99.90;;;;;;4860000;29;20518;-77
2024/04/05 07:59:29;;;;;;;36.67;34.15;;;23.70;99.90;;;;;;4863060;29;20036;-78
2024/04/05 08:01:55;;;;;;;36.42;33.78;;;23.70;99.90;;;;;;4861584;29;20049;-77
2024/04/05 08:04:22;;;;;;;36.35;33.65;;;24.00;99.90;;;;;;4862018;29;20061;-77
2024/04/05 08:06:49;;;;;;;37.05;34.45;;;23.50;99.90;;;;;;4863393;29;20037;-77
2024/04/05 08:09:18;;;;;;;37.15;34.45;;;23.50;99.90;;;;;;4862861;29;20502;-78
2024/04/05 08:11:46;;;;;;;36.85;34.45;;;23.80;99.90;;;;;;4860453;29;20036;-78
2024/04/05 08:14:12;;;;;;;36.88;34.53;;;23.90;99.90;;;;;;4862620;29;20045;-77
2024/04/05 08:16:39;;;;;;;38.45;35.55;;;23.60;99.90;;;;;;4845079;29;20073;-77
2024/04/05 08:19:08;;;;;;;38.08;35.47;;;23.30;99.90;;;;;;4862792;29;20081;-78
2024/04/05 08:21:35;;;;;;;37.50;34.75;;;23.60;99.90;;;;;;4859956;29;20049;-78
2024/04/05 08:24:03;;;;;;;37.40;34.40;;;23.50;99.90;;;;;;4861446;29;20395;-78
2024/04/05 08:26:29;;;;;;;36.80;34.40;;;23.40;99.90;;;;;;4861886;29;20065;-78
2024/04/05 08:28:55;;;;;;;37.30;34.75;;;23.50;99.90;;;;;;4861298;29;20036;-78
2024/04/05 08:31:22;;;;;;;36.95;34.50;;;23.20;99.90;;;;;;4861679;29;20090;-78
2024/04/05 08:33:48;;;;;;;37.22;34.65;;;22.90;99.90;;;;;;4862120;29;20391;-78
2024/04/05 08:36:15;;;;;;;38.10;35.45;;;23.20;99.90;;;;;;4862149;29;20032;-78
2024/04/05 08:38:41;;;;;;;36.70;34.20;;;23.20;99.90;;;;;;4845702;29;20443;-78
2024/04/05 08:41:10;;;;;;;35.78;33.33;;;23.60;99.90;;;;;;4862484;29;20034;-78
2024/04/05 08:43:42;;;;;;;34.90;32.55;;;24.00;99.90;;;;;;4861921;29;20049;-78
2024/04/05 08:46:09;;;;;;;34.25;31.75;;;23.50;99.90;;;;;;4862411;29;20048;-78
2024/04/05 08:48:41;;;;;;;34.03;31.65;;;23.50;99.90;;;;;;4860677;29;20030;-78
2024/04/05 08:51:13;;;;;;;35.22;32.53;;;22.90;99.90;;;;;;4860475;29;20025;-78
2024/04/05 08:53:39;;;;;;;33.85;31.50;;;23.10;99.90;;;;;;4859618;29;20029;-78
2024/04/05 08:56:07;;;;;;;34.67;31.98;;;23.20;99.90;;;;;;4859235;29;20037;-78
2024/04/05 08:58:33;;;;;;;35.35;32.65;;;22.70;99.90;;;;;;4862303;29;20387;-78
2024/04/05 09:01:00;;;;;;;35.67;33.05;;;22.40;99.90;;;;;;4861807;29;20029;-78
2024/04/05 09:03:27;;;;;;;34.78;32.25;;;22.60;99.90;;;;;;4861726;29;20036;-78
2024/04/05 09:05:57;;;;;;;36.03;33.20;;;22.40;99.90;;;;;;4860993;29;20045;-78
2024/04/05 09:08:24;;;;;;;35.53;32.58;;;22.50;99.90;;;;;;4862155;29;20054;-78
2024/04/05 09:10:50;;;;;;;34.13;31.80;;;22.40;99.90;;;;;;4844084;29;20056;-78
2024/04/05 09:13:23;;;;;;;34.75;32.00;;;22.30;99.90;;;;;;4861573;29;20061;-77
2024/04/05 09:15:53;;;;;;;35.05;32.20;;;22.10;99.90;;;;;;4861061;29;20033;-77
2024/04/05 09:18:28;;;;;;;33.65;31.30;;;22.30;99.90;;;;;;4862036;29;20163;-78
2024/04/05 09:20:58;;;;;;;34.10;31.60;;;22.60;99.90;;;;;;4858782;29;20056;-78
2024/04/05 09:23:24;;;;;;;34.38;31.83;;;22.80;99.90;;;;;;4861994;29;20037;-78
2024/04/05 09:26:02;;;;;;;33.33;30.92;;;22.70;99.90;;;;;;4859286;29;20437;-78
2024/04/05 09:28:32;;;;;;;33.90;31.60;;;22.60;99.90;;;;;;4844589;29;20460;-78
2024/04/05 09:30:59;;;;;;;33.75;31.50;;;22.30;99.90;;;;;;4860323;29;20060;-78
2024/04/05 09:33:25;;;;;;;33.38;31.08;;;22.20;99.90;;;;;;4859293;29;20033;-78
2024/04/05 09:35:54;;;;;;;34.28;31.98;;;22.20;99.90;;;;;;4860881;29;20124;-78
2024/04/05 09:38:24;;;;;;;34.00;31.45;;;22.40;99.90;;;;;;4848265;29;20104;-78
2024/04/05 09:40:53;;;;;;;33.42;31.00;;;22.20;99.90;;;;;;4862277;29;20081;-78
2024/04/05 09:43:21;;;;;;;33.22;31.02;;;22.40;99.90;;;;;;4845034;29;20060;-78
2024/04/05 09:45:48;;;;;;;34.38;31.90;;;22.60;99.90;;;;;;4844222;29;20503;-78
2024/04/05 09:48:14;;;;;;;33.97;31.52;;;23.00;99.90;;;;;;4861463;29;20051;-78
2024/04/05 09:50:41;;;;;;;34.83;32.00;;;22.90;99.90;;;;;;4859385;29;20108;-78
2024/04/05 09:53:08;;;;;;;34.45;32.13;;;22.70;99.90;;;;;;4860717;29;20022;-79
2024/04/05 09:55:42;;;;;;;34.42;31.95;;;22.70;99.90;;;;;;4866493;29;20037;-77
2024/04/05 09:58:10;;;;;;;33.95;31.50;;;22.70;99.90;;;;;;4872260;29;20037;-77
2024/04/05 10:00:38;;;;;;;33.92;31.70;;;22.50;99.90;;;;;;4869358;29;20098;-77
2024/04/05 10:03:05;;;;;;;33.92;31.42;;;22.60;99.90;;;;;;4865091;29;20025;-78
2024/04/05 10:05:33;;;;;;;33.80;31.35;;;22.60;99.90;;;;;;4861889;29;20034;-78
2024/04/05 10:08:16;;;;;;;33.25;31.08;;;22.30;99.90;;;;;;4861780;29;20448;-78
2024/04/05 10:10:45;;;;;;;34.03;31.60;;;22.10;99.90;;;;;;4837471;29;20136;-77
2024/04/05 10:13:17;;;;;;;33.92;31.63;;;22.30;99.90;;;;;;4861487;29;20030;-77
2024/04/05 10:15:57;;;;;;;34.33;31.63;;;22.40;99.90;;;;;;4858137;29;20078;-78
2024/04/05 10:18:29;;;;;;;33.72;31.33;;;22.20;99.90;;;;;;4870516;29;20439;-77
2024/04/05 10:20:59;;;;;;;34.67;32.05;;;21.90;99.90;;;;;;4862062;29;20054;-78
2024/04/05 10:23:26;;;;;;;33.17;30.40;;;21.70;99.90;;;;;;4862245;29;20501;-77
2024/04/05 10:25:52;;;;;;;34.20;31.90;;;22.10;99.90;;;;;;4843512;29;20072;-78
2024/04/05 10:28:21;;;;;;;34.05;31.63;;;21.90;99.90;;;;;;4860638;29;20060;-77
2024/04/05 10:30:50;;;;;;;33.67;31.15;;;22.20;99.90;;;;;;4860798;29;20033;-78
2024/04/05 10:33:24;;;;;;;33.95;31.58;;;22.60;99.90;;;;;;4861538;29;20082;-77
2024/04/05 10:35:56;;;;;;;34.65;32.13;;;22.30;99.90;;;;;;4860908;29;20113;-78
2024/04/05 10:38:27;;;;;;;33.88;31.48;;;22.40;99.90;;;;;;4860764;29;20040;-78
2024/04/05 10:40:58;;;;;;;34.45;31.73;;;22.50;99.90;;;;;;4844479;29;20398;-78
2024/04/05 10:43:25;;;;;;;33.88;31.35;;;22.70;99.90;;;;;;4861516;29;20487;-77
2024/04/05 10:45:57;;;;;;;33.65;31.27;;;22.40;99.90;;;;;;4859817;29;20045;-77
2024/04/05 10:48:24;;;;;;;33.58;31.15;;;22.30;99.90;;;;;;4829709;29;20052;-78
2024/04/05 10:50:51;;;;;;;33.40;31.00;;;22.70;99.90;;;;;;4858883;29;20053;-78
2024/04/05 10:53:20;;;;;;;34.03;30.90;;;22.60;99.90;;;;;;4859995;29;20060;-78
2024/04/05 10:55:49;;;;;;;32.95;30.65;;;22.30;99.90;;;;;;4844615;29;20034;-78
2024/04/05 10:58:16;;;;;;;34.47;31.92;;;22.60;99.90;;;;;;4861239;29;20030;-78
2024/04/05 11:00:42;;;;;;;33.25;30.67;;;22.20;99.90;;;;;;4859416;29;20387;-77
2024/04/05 11:03:10;;;;;;;33.33;31.00;;;22.10;99.90;;;;;;4859571;29;20041;-78
2024/04/05 11:05:37;;;;;;;33.50;30.65;;;22.00;99.90;;;;;;4860105;29;20049;-77
2024/04/05 11:08:04;;;;;;;33.17;30.88;;;22.20;99.90;;;;;;4860429;29;20121;-78
2024/04/05 11:10:36;;;;;;;34.15;31.52;;;22.40;99.90;;;;;;4860349;29;20169;-77
2024/04/05 11:13:20;;;;;;;32.90;30.70;;;22.20;99.90;;;;;;4859679;29;20030;-77
2024/04/05 11:15:47;;;;;;;34.40;31.77;;;22.30;99.90;;;;;;4860059;29;20033;-77
2024/04/05 11:18:14;;;;;;;35.50;32.72;;;22.30;99.90;;;;;;4859608;29;20467;-77
2024/04/05 11:20:42;;;;;;;34.83;32.30;;;22.30;99.90;;;;;;4859610;29;20069;-76
2024/04/05 11:23:17;;;;;;;34.17;31.70;;;22.10;99.90;;;;;;4859826;29;20021;-77
2024/04/05 11:25:57;;;;;;;34.30;31.65;;;22.20;99.90;;;;;;4843391;29;20490;-78
2024/04/05 11:28:24;;;;;;;33.40;31.15;;;22.20;99.90;;;;;;4843204;29;20025;-78
2024/04/05 11:30:54;;;;;;;34.00;31.05;;;22.50;99.90;;;;;;4859067;29;20026;-78
2024/04/05 11:33:20;;;;;;;33.70;30.88;;;22.40;99.90;;;;;;4858403;29;20038;-78
2024/04/05 11:35:51;;;;;;;33.47;31.15;;;22.40;99.90;;;;;;4853162;29;20507;-79
2024/04/05 11:38:17;;;;;;;33.55;30.90;;;22.20;99.90;;;;;;4842630;29;20403;-78
2024/04/05 11:40:44;;;;;;;32.90;30.52;;;22.30;99.90;;;;;;4859555;29;20036;-78
2024/04/05 11:43:11;;;;;;;34.17;31.23;;;22.20;99.90;;;;;;4859927;29;20113;-77
2024/04/05 11:45:38;;;;;;;34.65;31.92;;;22.20;99.90;;;;;;4854264;29;20037;-78
2024/04/05 11:48:06;;;;;;;34.55;32.15;;;22.40;99.90;;;;;;4846734;29;20068;-77
2024/04/05 11:50:35;;;;;;;33.53;31.27;;;22.90;99.90;;;;;;4845350;29;20387;-77
2024/04/05 11:53:04;;;;;;;33.42;30.90;;;22.80;99.90;;;;;;4857205;29;20030;-77
2024/04/05 11:55:30;;;;;;;34.33;32.10;;;22.80;99.90;;;;;;4853367;29;20033;-79
2024/04/05 11:57:59;;;;;;;34.47;32.10;;;22.40;99.90;;;;;;4846090;29;20064;-77
2024/04/05 12:00:26;;;;;;;34.22;31.92;;;22.30;99.90;;;;;;4863293;29;20507;-76
2024/04/05 12:02:52;;;;;;;33.83;31.63;;;22.10;99.90;;;;;;4863305;29;20388;-77
2024/04/05 12:05:21;;;;;;;34.88;32.20;;;22.40;99.90;;;;;;4861513;29;20038;-78
2024/04/05 12:07:49;;;;;;;34.03;31.77;;;22.60;99.90;;;;;;4845159;29;20025;-77
2024/04/05 12:10:17;;;;;;;33.30;30.73;;;22.60;99.90;;;;;;4863443;29;20089;-78
2024/04/05 12:12:44;;;;;;;33.75;31.33;;;22.50;99.90;;;;;;4861971;29;20484;-80
2024/04/05 12:15:11;;;;;;;35.03;32.50;;;22.60;99.90;;;;;;4847096;29;20044;-78
2024/04/05 12:17:37;;;;;;;36.15;33.53;;;22.50;99.90;;;;;;4860569;29;20093;-77
2024/04/05 12:20:11;;;;;;;34.95;32.60;;;22.50;99.90;;;;;;4863238;29;20037;-78
2024/04/05 12:22:38;;;;;;;35.80;33.13;;;22.60;99.90;;;;;;4862975;29;20061;-80
2024/04/05 12:25:05;;;;;;;35.95;33.10;;;22.80;99.90;;;;;;4831257;29;20358;-78
2024/04/05 12:27:32;;;;;;;35.05;32.55;;;22.90;99.90;;;;;;4846454;29;20093;-78
2024/04/05 12:30:00;;;;;;;35.78;32.95;;;22.80;99.90;;;;;;4863055;29;20060;-78
2024/04/05 12:32:26;;;;;;;36.30;33.70;;;22.80;99.90;;;;;;4863052;29;20030;-78